sensor_id;sensor_type;location;lat;lon;timestamp;P1;durP1;ratioP1;P2;durP2;ratioP2
13708;SDS011;54933;51.908;7.730;2023-04-24T00:00:14;0.40;;;0.40;;
13708;SDS011;54933;51.908;7.730;2023-04-24T00:02:41;0.60;;;0.47;;
13708;SDS011;54933;51.908;7.730;2023-04-24T00:05:11;0.30;;;0.30;;
13708;SDS011;54933;51.908;7.730;2023-04-24T00:07:37;0.47;;;0.40;;
13708;SDS011;54933;51.908;7.730;2023-04-24T00:10:02;0.40;;;0.40;;
13708;SDS011;54933;51.908;7.730;2023-04-24T00:12:28;1.23;;;0.50;;
13708;SDS011;54933;51.908;7.730;2023-04-24T00:14:53;0.37;;;0.30;;
13708;SDS011;54933;51.908;7.730;2023-04-24T00:17:18;0.50;;;0.50;;
13708;SDS011;54933;51.908;7.730;2023-04-24T00:19:47;0.30;;;0.30;;
13708;SDS011;54933;51.908;7.730;2023-04-24T00:22:13;0.63;;;0.50;;
13708;SDS011;54933;51.908;7.730;2023-04-24T00:24:39;0.53;;;0.50;;
13708;SDS011;54933;51.908;7.730;2023-04-24T00:27:05;0.40;;;0.40;;
13708;SDS011;54933;51.908;7.730;2023-04-24T00:29:30;0.33;;;0.33;;
13708;SDS011;54933;51.908;7.730;2023-04-24T00:31:56;0.40;;;0.40;;
13708;SDS011;54933;51.908;7.730;2023-04-24T00:34:21;0.30;;;0.30;;
13708;SDS011;54933;51.908;7.730;2023-04-24T00:36:47;0.40;;;0.40;;
13708;SDS011;54933;51.908;7.730;2023-04-24T00:39:14;0.70;;;0.40;;
13708;SDS011;54933;51.908;7.730;2023-04-24T00:41:39;0.20;;;0.17;;
13708;SDS011;54933;51.908;7.730;2023-04-24T00:44:04;0.33;;;0.33;;
13708;SDS011;54933;51.908;7.730;2023-04-24T00:46:30;0.57;;;0.53;;
13708;SDS011;54933;51.908;7.730;2023-04-24T00:48:56;0.37;;;0.23;;
13708;SDS011;54933;51.908;7.730;2023-04-24T00:51:21;0.50;;;0.37;;
13708;SDS011;54933;51.908;7.730;2023-04-24T00:53:49;0.40;;;0.40;;
13708;SDS011;54933;51.908;7.730;2023-04-24T00:56:15;0.43;;;0.40;;
13708;SDS011;54933;51.908;7.730;2023-04-24T00:58:41;0.30;;;0.30;;
13708;SDS011;54933;51.908;7.730;2023-04-24T01:01:07;0.40;;;0.40;;
13708;SDS011;54933;51.908;7.730;2023-04-24T01:03:34;0.40;;;0.40;;
13708;SDS011;54933;51.908;7.730;2023-04-24T01:06:01;0.37;;;0.30;;
13708;SDS011;54933;51.908;7.730;2023-04-24T01:08:28;0.23;;;0.23;;
13708;SDS011;54933;51.908;7.730;2023-04-24T01:10:53;1.40;;;0.40;;
13708;SDS011;54933;51.908;7.730;2023-04-24T01:13:19;0.40;;;0.40;;
13708;SDS011;54933;51.908;7.730;2023-04-24T01:15:45;0.40;;;0.40;;
13708;SDS011;54933;51.908;7.730;2023-04-24T01:18:11;0.27;;;0.27;;
13708;SDS011;54933;51.908;7.730;2023-04-24T01:20:37;0.77;;;0.27;;
13708;SDS011;54933;51.908;7.730;2023-04-24T01:23:05;0.40;;;0.30;;
13708;SDS011;54933;51.908;7.730;2023-04-24T01:25:31;0.20;;;0.20;;
13708;SDS011;54933;51.908;7.730;2023-04-24T01:27:57;0.20;;;0.20;;
13708;SDS011;54933;51.908;7.730;2023-04-24T01:30:23;0.27;;;0.27;;
13708;SDS011;54933;51.908;7.730;2023-04-24T01:32:48;0.43;;;0.23;;
13708;SDS011;54933;51.908;7.730;2023-04-24T01:35:14;0.40;;;0.33;;
13708;SDS011;54933;51.908;7.730;2023-04-24T01:37:39;0.30;;;0.30;;
13708;SDS011;54933;51.908;7.730;2023-04-24T01:40:05;0.30;;;0.30;;
13708;SDS011;54933;51.908;7.730;2023-04-24T01:42:32;2.23;;;0.40;;
13708;SDS011;54933;51.908;7.730;2023-04-24T01:44:58;0.30;;;0.30;;
13708;SDS011;54933;51.908;7.730;2023-04-24T01:47:24;0.20;;;0.20;;
13708;SDS011;54933;51.908;7.730;2023-04-24T01:49:50;0.30;;;0.30;;
13708;SDS011;54933;51.908;7.730;2023-04-24T01:52:16;0.33;;;0.33;;
13708;SDS011;54933;51.908;7.730;2023-04-24T01:54:42;0.13;;;0.13;;
13708;SDS011;54933;51.908;7.730;2023-04-24T01:57:08;0.20;;;0.20;;
13708;SDS011;54933;51.908;7.730;2023-04-24T01:59:33;0.30;;;0.30;;
13708;SDS011;54933;51.908;7.730;2023-04-24T02:01:59;0.30;;;0.30;;
13708;SDS011;54933;51.908;7.730;2023-04-24T02:04:25;0.30;;;0.30;;
13708;SDS011;54933;51.908;7.730;2023-04-24T02:06:50;0.30;;;0.30;;
13708;SDS011;54933;51.908;7.730;2023-04-24T02:09:16;0.40;;;0.40;;
13708;SDS011;54933;51.908;7.730;2023-04-24T02:11:41;0.30;;;0.30;;
13708;SDS011;54933;51.908;7.730;2023-04-24T02:14:06;0.33;;;0.20;;
13708;SDS011;54933;51.908;7.730;2023-04-24T02:16:31;0.50;;;0.50;;
13708;SDS011;54933;51.908;7.730;2023-04-24T02:18:57;0.30;;;0.30;;
13708;SDS011;54933;51.908;7.730;2023-04-24T02:21:23;0.30;;;0.30;;
13708;SDS011;54933;51.908;7.730;2023-04-24T02:23:48;0.20;;;0.20;;
13708;SDS011;54933;51.908;7.730;2023-04-24T02:26:13;0.30;;;0.30;;
13708;SDS011;54933;51.908;7.730;2023-04-24T02:28:39;0.20;;;0.20;;
13708;SDS011;54933;51.908;7.730;2023-04-24T02:31:04;0.40;;;0.20;;
13708;SDS011;54933;51.908;7.730;2023-04-24T02:33:31;0.20;;;0.20;;
13708;SDS011;54933;51.908;7.730;2023-04-24T02:35:56;0.27;;;0.27;;
13708;SDS011;54933;51.908;7.730;2023-04-24T02:38:21;0.20;;;0.20;;
13708;SDS011;54933;51.908;7.730;2023-04-24T02:40:47;0.30;;;0.30;;
13708;SDS011;54933;51.908;7.730;2023-04-24T02:43:12;0.30;;;0.30;;
13708;SDS011;54933;51.908;7.730;2023-04-24T02:45:37;0.27;;;0.27;;
13708;SDS011;54933;51.908;7.730;2023-04-24T02:48:03;1.80;;;0.27;;
13708;SDS011;54933;51.908;7.730;2023-04-24T02:50:28;0.20;;;0.20;;
13708;SDS011;54933;51.908;7.730;2023-04-24T02:52:54;0.37;;;0.20;;
13708;SDS011;54933;51.908;7.730;2023-04-24T02:55:19;0.77;;;0.40;;
13708;SDS011;54933;51.908;7.730;2023-04-24T02:57:44;0.30;;;0.30;;
13708;SDS011;54933;51.908;7.730;2023-04-24T03:00:10;0.20;;;0.20;;
13708;SDS011;54933;51.908;7.730;2023-04-24T03:02:36;0.20;;;0.20;;
13708;SDS011;54933;51.908;7.730;2023-04-24T03:05:01;0.40;;;0.20;;
13708;SDS011;54933;51.908;7.730;2023-04-24T03:07:27;0.30;;;0.30;;
13708;SDS011;54933;51.908;7.730;2023-04-24T03:09:52;0.40;;;0.30;;
13708;SDS011;54933;51.908;7.730;2023-04-24T03:12:17;0.20;;;0.20;;
13708;SDS011;54933;51.908;7.730;2023-04-24T03:14:43;0.10;;;0.10;;
13708;SDS011;54933;51.908;7.730;2023-04-24T03:17:08;0.20;;;0.20;;
13708;SDS011;54933;51.908;7.730;2023-04-24T03:19:34;0.20;;;0.20;;
13708;SDS011;54933;51.908;7.730;2023-04-24T03:21:59;0.20;;;0.20;;
13708;SDS011;54933;51.908;7.730;2023-04-24T03:24:27;0.20;;;0.20;;
13708;SDS011;54933;51.908;7.730;2023-04-24T03:26:52;0.30;;;0.30;;
13708;SDS011;54933;51.908;7.730;2023-04-24T03:29:18;0.80;;;0.40;;
13708;SDS011;54933;51.908;7.730;2023-04-24T03:31:43;0.20;;;0.20;;
13708;SDS011;54933;51.908;7.730;2023-04-24T03:34:08;0.30;;;0.20;;
13708;SDS011;54933;51.908;7.730;2023-04-24T03:36:34;0.30;;;0.30;;
13708;SDS011;54933;51.908;7.730;2023-04-24T03:38:59;0.20;;;0.20;;
13708;SDS011;54933;51.908;7.730;2023-04-24T03:41:24;0.17;;;0.17;;
13708;SDS011;54933;51.908;7.730;2023-04-24T03:43:50;0.13;;;0.13;;
13708;SDS011;54933;51.908;7.730;2023-04-24T03:46:15;0.10;;;0.10;;
13708;SDS011;54933;51.908;7.730;2023-04-24T03:48:40;0.50;;;0.40;;
13708;SDS011;54933;51.908;7.730;2023-04-24T03:51:06;0.30;;;0.30;;
13708;SDS011;54933;51.908;7.730;2023-04-24T03:53:31;0.10;;;0.10;;
13708;SDS011;54933;51.908;7.730;2023-04-24T03:55:56;0.63;;;0.40;;
13708;SDS011;54933;51.908;7.730;2023-04-24T03:58:21;0.20;;;0.20;;
13708;SDS011;54933;51.908;7.730;2023-04-24T04:00:47;0.20;;;0.20;;
13708;SDS011;54933;51.908;7.730;2023-04-24T04:03:13;0.47;;;0.30;;
13708;SDS011;54933;51.908;7.730;2023-04-24T04:05:39;0.20;;;0.20;;
13708;SDS011;54933;51.908;7.730;2023-04-24T04:08:04;0.20;;;0.20;;
13708;SDS011;54933;51.908;7.730;2023-04-24T04:10:30;0.30;;;0.30;;
13708;SDS011;54933;51.908;7.730;2023-04-24T04:12:55;0.20;;;0.20;;
13708;SDS011;54933;51.908;7.730;2023-04-24T04:15:20;0.20;;;0.20;;
13708;SDS011;54933;51.908;7.730;2023-04-24T04:17:46;0.20;;;0.20;;
13708;SDS011;54933;51.908;7.730;2023-04-24T04:20:11;0.40;;;0.40;;
13708;SDS011;54933;51.908;7.730;2023-04-24T04:22:37;0.30;;;0.30;;
13708;SDS011;54933;51.908;7.730;2023-04-24T04:25:03;0.30;;;0.30;;
13708;SDS011;54933;51.908;7.730;2023-04-24T04:27:29;0.20;;;0.20;;
13708;SDS011;54933;51.908;7.730;2023-04-24T04:29:57;0.27;;;0.20;;
13708;SDS011;54933;51.908;7.730;2023-04-24T04:32:24;0.20;;;0.20;;
13708;SDS011;54933;51.908;7.730;2023-04-24T04:34:49;0.20;;;0.20;;
13708;SDS011;54933;51.908;7.730;2023-04-24T04:37:18;1.00;;;0.10;;
13708;SDS011;54933;51.908;7.730;2023-04-24T04:39:43;0.20;;;0.20;;
13708;SDS011;54933;51.908;7.730;2023-04-24T04:42:08;0.20;;;0.20;;
13708;SDS011;54933;51.908;7.730;2023-04-24T04:44:34;0.30;;;0.30;;
13708;SDS011;54933;51.908;7.730;2023-04-24T04:47:00;0.73;;;0.30;;
13708;SDS011;54933;51.908;7.730;2023-04-24T04:49:28;0.27;;;0.27;;
13708;SDS011;54933;51.908;7.730;2023-04-24T04:51:54;0.43;;;0.33;;
13708;SDS011;54933;51.908;7.730;2023-04-24T04:54:19;0.47;;;0.27;;
13708;SDS011;54933;51.908;7.730;2023-04-24T04:56:45;0.40;;;0.40;;
13708;SDS011;54933;51.908;7.730;2023-04-24T04:59:10;0.30;;;0.30;;
13708;SDS011;54933;51.908;7.730;2023-04-24T05:01:35;0.20;;;0.20;;
13708;SDS011;54933;51.908;7.730;2023-04-24T05:04:01;0.40;;;0.40;;
13708;SDS011;54933;51.908;7.730;2023-04-24T05:06:26;0.40;;;0.40;;
13708;SDS011;54933;51.908;7.730;2023-04-24T05:08:52;0.20;;;0.20;;
13708;SDS011;54933;51.908;7.730;2023-04-24T05:11:21;0.40;;;0.40;;
13708;SDS011;54933;51.908;7.730;2023-04-24T05:13:47;0.40;;;0.40;;
13708;SDS011;54933;51.908;7.730;2023-04-24T05:16:12;0.30;;;0.30;;
13708;SDS011;54933;51.908;7.730;2023-04-24T05:18:37;0.30;;;0.30;;
13708;SDS011;54933;51.908;7.730;2023-04-24T05:21:03;0.40;;;0.40;;
13708;SDS011;54933;51.908;7.730;2023-04-24T05:23:28;0.30;;;0.30;;
13708;SDS011;54933;51.908;7.730;2023-04-24T05:25:54;2.77;;;0.60;;
13708;SDS011;54933;51.908;7.730;2023-04-24T05:28:19;3.00;;;0.67;;
13708;SDS011;54933;51.908;7.730;2023-04-24T05:30:45;3.23;;;2.93;;
13708;SDS011;54933;51.908;7.730;2023-04-24T05:33:11;15.60;;;5.03;;
13708;SDS011;54933;51.908;7.730;2023-04-24T05:35:36;39.07;;;7.63;;
13708;SDS011;54933;51.908;7.730;2023-04-24T05:38:01;28.83;;;5.23;;
13708;SDS011;54933;51.908;7.730;2023-04-24T05:40:26;28.57;;;4.97;;
13708;SDS011;54933;51.908;7.730;2023-04-24T05:42:52;23.53;;;4.50;;
13708;SDS011;54933;51.908;7.730;2023-04-24T05:45:17;32.77;;;3.80;;
13708;SDS011;54933;51.908;7.730;2023-04-24T05:47:43;19.47;;;4.50;;
13708;SDS011;54933;51.908;7.730;2023-04-24T05:50:09;19.97;;;5.10;;
13708;SDS011;54933;51.908;7.730;2023-04-24T05:52:35;7.37;;;5.00;;
13708;SDS011;54933;51.908;7.730;2023-04-24T05:55:00;9.93;;;4.40;;
13708;SDS011;54933;51.908;7.730;2023-04-24T05:57:25;9.53;;;4.43;;
13708;SDS011;54933;51.908;7.730;2023-04-24T05:59:51;11.37;;;4.00;;
13708;SDS011;54933;51.908;7.730;2023-04-24T06:02:16;11.03;;;4.10;;
13708;SDS011;54933;51.908;7.730;2023-04-24T06:04:42;10.37;;;3.50;;
13708;SDS011;54933;51.908;7.730;2023-04-24T06:07:08;10.30;;;4.17;;
13708;SDS011;54933;51.908;7.730;2023-04-24T06:09:35;8.37;;;3.27;;
13708;SDS011;54933;51.908;7.730;2023-04-24T06:12:01;10.73;;;3.60;;
13708;SDS011;54933;51.908;7.730;2023-04-24T06:14:27;9.50;;;3.80;;
13708;SDS011;54933;51.908;7.730;2023-04-24T06:16:53;11.40;;;4.00;;
13708;SDS011;54933;51.908;7.730;2023-04-24T06:19:18;7.13;;;3.13;;
13708;SDS011;54933;51.908;7.730;2023-04-24T06:21:43;5.97;;;2.40;;
13708;SDS011;54933;51.908;7.730;2023-04-24T06:24:09;6.43;;;2.90;;
13708;SDS011;54933;51.908;7.730;2023-04-24T06:26:34;4.30;;;2.87;;
13708;SDS011;54933;51.908;7.730;2023-04-24T06:28:59;4.80;;;2.83;;
13708;SDS011;54933;51.908;7.730;2023-04-24T06:31:25;8.97;;;3.10;;
13708;SDS011;54933;51.908;7.730;2023-04-24T06:33:50;9.27;;;2.90;;
13708;SDS011;54933;51.908;7.730;2023-04-24T06:36:16;9.60;;;3.40;;
13708;SDS011;54933;51.908;7.730;2023-04-24T06:38:42;4.90;;;2.53;;
13708;SDS011;54933;51.908;7.730;2023-04-24T06:41:07;2.50;;;2.27;;
13708;SDS011;54933;51.908;7.730;2023-04-24T06:43:32;5.60;;;2.20;;
13708;SDS011;54933;51.908;7.730;2023-04-24T06:45:58;4.93;;;2.20;;
13708;SDS011;54933;51.908;7.730;2023-04-24T06:48:24;6.23;;;2.20;;
13708;SDS011;54933;51.908;7.730;2023-04-24T06:50:50;4.97;;;2.13;;
13708;SDS011;54933;51.908;7.730;2023-04-24T06:53:16;5.17;;;2.40;;
13708;SDS011;54933;51.908;7.730;2023-04-24T06:55:41;9.73;;;2.30;;
13708;SDS011;54933;51.908;7.730;2023-04-24T06:58:08;13.00;;;2.20;;
13708;SDS011;54933;51.908;7.730;2023-04-24T07:00:33;6.93;;;1.97;;
13708;SDS011;54933;51.908;7.730;2023-04-24T07:02:58;4.50;;;1.70;;
13708;SDS011;54933;51.908;7.730;2023-04-24T07:05:24;9.93;;;1.70;;
13708;SDS011;54933;51.908;7.730;2023-04-24T07:07:49;4.20;;;1.60;;
13708;SDS011;54933;51.908;7.730;2023-04-24T07:10:16;2.23;;;1.40;;
13708;SDS011;54933;51.908;7.730;2023-04-24T07:12:41;3.10;;;1.40;;
13708;SDS011;54933;51.908;7.730;2023-04-24T07:15:07;1.80;;;1.30;;
13708;SDS011;54933;51.908;7.730;2023-04-24T07:17:33;7.87;;;1.90;;
13708;SDS011;54933;51.908;7.730;2023-04-24T07:19:59;2.40;;;1.60;;
13708;SDS011;54933;51.908;7.730;2023-04-24T07:22:24;2.33;;;1.20;;
13708;SDS011;54933;51.908;7.730;2023-04-24T07:24:49;5.13;;;1.50;;
13708;SDS011;54933;51.908;7.730;2023-04-24T07:27:15;2.03;;;1.17;;
13708;SDS011;54933;51.908;7.730;2023-04-24T07:29:40;2.93;;;1.30;;
13708;SDS011;54933;51.908;7.730;2023-04-24T07:32:05;2.90;;;1.40;;
13708;SDS011;54933;51.908;7.730;2023-04-24T07:34:31;3.53;;;1.10;;
13708;SDS011;54933;51.908;7.730;2023-04-24T07:36:56;4.80;;;1.27;;
13708;SDS011;54933;51.908;7.730;2023-04-24T07:39:22;2.10;;;1.33;;
13708;SDS011;54933;51.908;7.730;2023-04-24T07:41:47;2.07;;;1.10;;
13708;SDS011;54933;51.908;7.730;2023-04-24T07:44:12;1.20;;;1.20;;
13708;SDS011;54933;51.908;7.730;2023-04-24T07:46:38;0.90;;;0.90;;
13708;SDS011;54933;51.908;7.730;2023-04-24T07:49:03;1.27;;;1.10;;
13708;SDS011;54933;51.908;7.730;2023-04-24T07:51:29;6.53;;;1.03;;
13708;SDS011;54933;51.908;7.730;2023-04-24T07:53:55;1.97;;;1.10;;
13708;SDS011;54933;51.908;7.730;2023-04-24T07:56:20;3.23;;;1.10;;
13708;SDS011;54933;51.908;7.730;2023-04-24T07:58:46;2.53;;;1.30;;
13708;SDS011;54933;51.908;7.730;2023-04-24T08:01:11;6.33;;;1.20;;
13708;SDS011;54933;51.908;7.730;2023-04-24T08:03:36;1.27;;;0.90;;
13708;SDS011;54933;51.908;7.730;2023-04-24T08:06:02;1.40;;;1.33;;
13708;SDS011;54933;51.908;7.730;2023-04-24T08:08:27;1.20;;;0.90;;
13708;SDS011;54933;51.908;7.730;2023-04-24T08:10:53;1.87;;;0.97;;
13708;SDS011;54933;51.908;7.730;2023-04-24T08:13:18;4.77;;;1.33;;
13708;SDS011;54933;51.908;7.730;2023-04-24T08:15:43;1.93;;;0.90;;
13708;SDS011;54933;51.908;7.730;2023-04-24T08:18:09;2.57;;;0.93;;
13708;SDS011;54933;51.908;7.730;2023-04-24T08:20:36;1.33;;;1.10;;
13708;SDS011;54933;51.908;7.730;2023-04-24T08:23:02;2.23;;;1.03;;
13708;SDS011;54933;51.908;7.730;2023-04-24T08:25:27;2.93;;;1.27;;
13708;SDS011;54933;51.908;7.730;2023-04-24T08:27:52;1.10;;;0.77;;
13708;SDS011;54933;51.908;7.730;2023-04-24T08:30:18;1.10;;;1.10;;
13708;SDS011;54933;51.908;7.730;2023-04-24T08:32:43;1.33;;;1.00;;
13708;SDS011;54933;51.908;7.730;2023-04-24T08:35:08;2.10;;;0.80;;
13708;SDS011;54933;51.908;7.730;2023-04-24T08:37:34;1.23;;;1.00;;
13708;SDS011;54933;51.908;7.730;2023-04-24T08:40:00;2.47;;;0.90;;
13708;SDS011;54933;51.908;7.730;2023-04-24T08:42:27;1.23;;;0.90;;
13708;SDS011;54933;51.908;7.730;2023-04-24T08:44:53;0.87;;;0.87;;
13708;SDS011;54933;51.908;7.730;2023-04-24T08:47:19;1.30;;;0.80;;
13708;SDS011;54933;51.908;7.730;2023-04-24T08:49:46;0.80;;;0.80;;
13708;SDS011;54933;51.908;7.730;2023-04-24T08:52:13;0.70;;;0.70;;
13708;SDS011;54933;51.908;7.730;2023-04-24T08:54:38;0.60;;;0.60;;
13708;SDS011;54933;51.908;7.730;2023-04-24T08:57:04;1.97;;;0.87;;
13708;SDS011;54933;51.908;7.730;2023-04-24T08:59:32;1.30;;;0.80;;
13708;SDS011;54933;51.908;7.730;2023-04-24T09:01:59;1.80;;;0.70;;
13708;SDS011;54933;51.908;7.730;2023-04-24T09:04:25;0.80;;;0.80;;
13708;SDS011;54933;51.908;7.730;2023-04-24T09:06:51;0.80;;;0.80;;
13708;SDS011;54933;51.908;7.730;2023-04-24T09:09:20;0.70;;;0.70;;
13708;SDS011;54933;51.908;7.730;2023-04-24T09:11:48;1.37;;;0.60;;
13708;SDS011;54933;51.908;7.730;2023-04-24T09:14:15;1.27;;;1.20;;
13708;SDS011;54933;51.908;7.730;2023-04-24T09:16:41;0.93;;;0.70;;
13708;SDS011;54933;51.908;7.730;2023-04-24T09:19:06;1.23;;;0.90;;
13708;SDS011;54933;51.908;7.730;2023-04-24T09:21:32;0.70;;;0.70;;
13708;SDS011;54933;51.908;7.730;2023-04-24T09:23:59;1.07;;;0.80;;
13708;SDS011;54933;51.908;7.730;2023-04-24T09:26:25;0.97;;;0.90;;
13708;SDS011;54933;51.908;7.730;2023-04-24T09:28:53;0.60;;;0.60;;
13708;SDS011;54933;51.908;7.730;2023-04-24T09:31:19;0.87;;;0.60;;
13708;SDS011;54933;51.908;7.730;2023-04-24T09:33:53;2.27;;;0.80;;
13708;SDS011;54933;51.908;7.730;2023-04-24T09:36:29;0.67;;;0.67;;
13708;SDS011;54933;51.908;7.730;2023-04-24T09:38:58;0.67;;;0.63;;
13708;SDS011;54933;51.908;7.730;2023-04-24T09:41:24;0.60;;;0.60;;
13708;SDS011;54933;51.908;7.730;2023-04-24T09:43:50;2.30;;;0.70;;
13708;SDS011;54933;51.908;7.730;2023-04-24T09:46:15;2.20;;;0.70;;
13708;SDS011;54933;51.908;7.730;2023-04-24T09:48:43;0.63;;;0.50;;
13708;SDS011;54933;51.908;7.730;2023-04-24T09:51:08;1.70;;;0.70;;
13708;SDS011;54933;51.908;7.730;2023-04-24T09:53:36;1.57;;;0.90;;
13708;SDS011;54933;51.908;7.730;2023-04-24T09:56:02;0.97;;;0.60;;
13708;SDS011;54933;51.908;7.730;2023-04-24T09:58:32;1.10;;;0.60;;
13708;SDS011;54933;51.908;7.730;2023-04-24T10:00:57;0.70;;;0.70;;
13708;SDS011;54933;51.908;7.730;2023-04-24T10:03:25;3.23;;;0.60;;
13708;SDS011;54933;51.908;7.730;2023-04-24T10:05:54;103.90;;;8.33;;
13708;SDS011;54933;51.908;7.730;2023-04-24T10:08:24;27.60;;;2.10;;
13708;SDS011;54933;51.908;7.730;2023-04-24T10:10:50;16.00;;;1.20;;
13708;SDS011;54933;51.908;7.730;2023-04-24T10:13:15;15.97;;;1.50;;
13708;SDS011;54933;51.908;7.730;2023-04-24T10:15:41;15.73;;;2.30;;
13708;SDS011;54933;51.908;7.730;2023-04-24T10:18:07;12.87;;;1.80;;
13708;SDS011;54933;51.908;7.730;2023-04-24T10:20:34;16.10;;;1.70;;
13708;SDS011;54933;51.908;7.730;2023-04-24T10:23:01;10.60;;;1.93;;
13708;SDS011;54933;51.908;7.730;2023-04-24T10:25:28;11.83;;;1.40;;
13708;SDS011;54933;51.908;7.730;2023-04-24T10:27:57;5.83;;;1.40;;
13708;SDS011;54933;51.908;7.730;2023-04-24T10:30:28;7.33;;;1.63;;
13708;SDS011;54933;51.908;7.730;2023-04-24T10:32:55;8.37;;;1.60;;
13708;SDS011;54933;51.908;7.730;2023-04-24T10:35:20;13.73;;;2.77;;
13708;SDS011;54933;51.908;7.730;2023-04-24T10:37:50;5.87;;;1.33;;
13708;SDS011;54933;51.908;7.730;2023-04-24T10:40:19;18.03;;;1.40;;
13708;SDS011;54933;51.908;7.730;2023-04-24T10:42:51;4.03;;;1.00;;
13708;SDS011;54933;51.908;7.730;2023-04-24T10:45:20;4.40;;;0.90;;
13708;SDS011;54933;51.908;7.730;2023-04-24T10:50:46;7.93;;;1.20;;
13708;SDS011;54933;51.908;7.730;2023-04-24T10:53:16;9.00;;;1.00;;
13708;SDS011;54933;51.908;7.730;2023-04-24T10:55:50;3.33;;;1.00;;
13708;SDS011;54933;51.908;7.730;2023-04-24T10:58:16;121.70;;;9.07;;
13708;SDS011;54933;51.908;7.730;2023-04-24T11:00:55;31.90;;;3.30;;
13708;SDS011;54933;51.908;7.730;2023-04-24T11:03:29;35.03;;;3.93;;
13708;SDS011;54933;51.908;7.730;2023-04-24T11:05:59;24.77;;;3.07;;
13708;SDS011;54933;51.908;7.730;2023-04-24T11:08:26;23.40;;;2.43;;
13708;SDS011;54933;51.908;7.730;2023-04-24T11:16:31;28.10;;;2.13;;
13708;SDS011;54933;51.908;7.730;2023-04-24T11:19:21;20.20;;;1.90;;
13708;SDS011;54933;51.908;7.730;2023-04-24T11:21:58;28.00;;;2.70;;
13708;SDS011;54933;51.908;7.730;2023-04-24T11:24:30;24.33;;;1.97;;
13708;SDS011;54933;51.908;7.730;2023-04-24T11:27:07;15.53;;;2.30;;
13708;SDS011;54933;51.908;7.730;2023-04-24T11:29:39;14.80;;;1.87;;
13708;SDS011;54933;51.908;7.730;2023-04-24T11:34:55;6.57;;;1.30;;
13708;SDS011;54933;51.908;7.730;2023-04-24T11:37:23;9.97;;;1.47;;
13708;SDS011;54933;51.908;7.730;2023-04-24T11:39:50;16.77;;;1.50;;
13708;SDS011;54933;51.908;7.730;2023-04-24T11:42:17;8.57;;;1.40;;
13708;SDS011;54933;51.908;7.730;2023-04-24T11:44:43;10.27;;;1.80;;
13708;SDS011;54933;51.908;7.730;2023-04-24T11:47:08;14.57;;;1.80;;
13708;SDS011;54933;51.908;7.730;2023-04-24T11:49:36;11.87;;;1.30;;
13708;SDS011;54933;51.908;7.730;2023-04-24T11:52:01;13.53;;;1.33;;
13708;SDS011;54933;51.908;7.730;2023-04-24T11:54:27;8.80;;;1.80;;
13708;SDS011;54933;51.908;7.730;2023-04-24T11:56:52;9.60;;;1.67;;
13708;SDS011;54933;51.908;7.730;2023-04-24T11:59:17;13.23;;;1.20;;
13708;SDS011;54933;51.908;7.730;2023-04-24T12:01:46;11.67;;;1.13;;
13708;SDS011;54933;51.908;7.730;2023-04-24T12:04:12;4.47;;;0.83;;
13708;SDS011;54933;51.908;7.730;2023-04-24T12:06:38;8.20;;;1.40;;
13708;SDS011;54933;51.908;7.730;2023-04-24T12:09:03;5.63;;;1.03;;
13708;SDS011;54933;51.908;7.730;2023-04-24T12:11:28;6.47;;;1.67;;
13708;SDS011;54933;51.908;7.730;2023-04-24T12:13:54;3.90;;;0.90;;
13708;SDS011;54933;51.908;7.730;2023-04-24T12:16:19;6.80;;;0.90;;
13708;SDS011;54933;51.908;7.730;2023-04-24T12:18:45;4.30;;;0.80;;
13708;SDS011;54933;51.908;7.730;2023-04-24T12:21:21;7.90;;;1.33;;
13708;SDS011;54933;51.908;7.730;2023-04-24T12:23:47;8.47;;;1.20;;
13708;SDS011;54933;51.908;7.730;2023-04-24T12:26:19;4.13;;;0.93;;
13708;SDS011;54933;51.908;7.730;2023-04-24T12:28:46;7.57;;;1.03;;
13708;SDS011;54933;51.908;7.730;2023-04-24T12:31:13;3.77;;;1.03;;
13708;SDS011;54933;51.908;7.730;2023-04-24T12:33:38;3.83;;;1.10;;
13708;SDS011;54933;51.908;7.730;2023-04-24T12:36:04;5.67;;;1.07;;
13708;SDS011;54933;51.908;7.730;2023-04-24T12:38:31;6.60;;;0.80;;
13708;SDS011;54933;51.908;7.730;2023-04-24T12:41:05;3.40;;;0.70;;
13708;SDS011;54933;51.908;7.730;2023-04-24T12:43:32;2.70;;;0.90;;
13708;SDS011;54933;51.908;7.730;2023-04-24T12:45:58;1.93;;;0.80;;
13708;SDS011;54933;51.908;7.730;2023-04-24T12:48:24;2.20;;;0.83;;
13708;SDS011;54933;51.908;7.730;2023-04-24T12:50:52;2.03;;;0.83;;
13708;SDS011;54933;51.908;7.730;2023-04-24T12:53:18;2.67;;;0.80;;
13708;SDS011;54933;51.908;7.730;2023-04-24T12:55:43;2.90;;;0.60;;
13708;SDS011;54933;51.908;7.730;2023-04-24T12:58:10;1.27;;;0.70;;
13708;SDS011;54933;51.908;7.730;2023-04-24T13:00:35;5.60;;;0.90;;
13708;SDS011;54933;51.908;7.730;2023-04-24T13:03:01;5.07;;;1.20;;
13708;SDS011;54933;51.908;7.730;2023-04-24T13:05:26;2.10;;;0.80;;
13708;SDS011;54933;51.908;7.730;2023-04-24T13:07:52;2.53;;;0.70;;
13708;SDS011;54933;51.908;7.730;2023-04-24T13:10:17;1.70;;;0.73;;
13708;SDS011;54933;51.908;7.730;2023-04-24T13:12:42;1.63;;;0.70;;
13708;SDS011;54933;51.908;7.730;2023-04-24T13:15:10;1.67;;;0.70;;
13708;SDS011;54933;51.908;7.730;2023-04-24T13:17:35;1.60;;;0.80;;
13708;SDS011;54933;51.908;7.730;2023-04-24T13:20:01;6.00;;;0.90;;
13708;SDS011;54933;51.908;7.730;2023-04-24T13:22:26;1.87;;;0.60;;
13708;SDS011;54933;51.908;7.730;2023-04-24T13:24:52;2.33;;;0.70;;
13708;SDS011;54933;51.908;7.730;2023-04-24T13:27:17;0.97;;;0.93;;
13708;SDS011;54933;51.908;7.730;2023-04-24T13:29:43;1.37;;;0.70;;
13708;SDS011;54933;51.908;7.730;2023-04-24T13:32:08;1.83;;;0.63;;
13708;SDS011;54933;51.908;7.730;2023-04-24T13:34:33;2.93;;;0.70;;
13708;SDS011;54933;51.908;7.730;2023-04-24T13:37:02;3.50;;;0.77;;
13708;SDS011;54933;51.908;7.730;2023-04-24T13:39:28;1.53;;;0.60;;
13708;SDS011;54933;51.908;7.730;2023-04-24T13:41:54;1.67;;;0.50;;
13708;SDS011;54933;51.908;7.730;2023-04-24T13:44:20;1.17;;;0.70;;
13708;SDS011;54933;51.908;7.730;2023-04-24T13:46:47;2.17;;;0.60;;
13708;SDS011;54933;51.908;7.730;2023-04-24T13:49:15;247.17;;;18.30;;
13708;SDS011;54933;51.908;7.730;2023-04-24T13:51:41;290.57;;;19.00;;
13708;SDS011;54933;51.908;7.730;2023-04-24T13:54:07;214.83;;;20.10;;
13708;SDS011;54933;51.908;7.730;2023-04-24T13:56:32;127.47;;;13.17;;
13708;SDS011;54933;51.908;7.730;2023-04-24T13:58:57;53.67;;;5.17;;
13708;SDS011;54933;51.908;7.730;2023-04-24T14:01:23;46.47;;;4.33;;
13708;SDS011;54933;51.908;7.730;2023-04-24T14:03:50;53.77;;;4.43;;
13708;SDS011;54933;51.908;7.730;2023-04-24T14:06:16;43.63;;;3.93;;
13708;SDS011;54933;51.908;7.730;2023-04-24T14:08:42;40.97;;;5.27;;
13708;SDS011;54933;51.908;7.730;2023-04-24T14:11:07;47.07;;;5.30;;
13708;SDS011;54933;51.908;7.730;2023-04-24T14:13:32;41.47;;;3.20;;
13708;SDS011;54933;51.908;7.730;2023-04-24T14:15:58;42.67;;;3.90;;
13708;SDS011;54933;51.908;7.730;2023-04-24T14:18:23;44.57;;;3.97;;
13708;SDS011;54933;51.908;7.730;2023-04-24T14:20:48;37.93;;;3.17;;
13708;SDS011;54933;51.908;7.730;2023-04-24T14:23:14;29.33;;;3.27;;
13708;SDS011;54933;51.908;7.730;2023-04-24T14:25:39;16.73;;;1.73;;
13708;SDS011;54933;51.908;7.730;2023-04-24T14:28:05;47.57;;;3.97;;
13708;SDS011;54933;51.908;7.730;2023-04-24T14:30:31;39.00;;;3.53;;
13708;SDS011;54933;51.908;7.730;2023-04-24T14:32:56;29.87;;;3.80;;
13708;SDS011;54933;51.908;7.730;2023-04-24T14:35:22;34.37;;;2.37;;
13708;SDS011;54933;51.908;7.730;2023-04-24T14:37:47;20.73;;;1.93;;
13708;SDS011;54933;51.908;7.730;2023-04-24T14:40:13;13.30;;;1.70;;
13708;SDS011;54933;51.908;7.730;2023-04-24T14:42:39;11.90;;;1.50;;
13708;SDS011;54933;51.908;7.730;2023-04-24T14:45:05;11.57;;;1.10;;
13708;SDS011;54933;51.908;7.730;2023-04-24T14:47:31;13.70;;;1.40;;
13708;SDS011;54933;51.908;7.730;2023-04-24T14:49:56;19.10;;;1.30;;